Main page
METAR-TAF:

METAR-TAF

Airports :

Georgetown, Ascension Island

RAF Ascension Island

latitude: 07-58S, longitude: 014-24W, elevation: 86 m

Current weather observation

The report was made 41 minutes ago, at 06:50 UTC
Wind 11 kt from the Southeast
Temperature 25°C
Humidity 74%
Pressure 1015 hPa
Visibility 10 km or more
Few clouds at a height of 2400 ft
Scattered clouds at a height of 5000 ft

METAR: FHAW 260650Z 14011KT 9999 FEW024 SCT050 25/20 Q1015 BLU TEMPO SCT019 WHT

Time: 07:31 (07:31 UTC)

Forecast

The report was made 3 hours and 1 minutes ago, at 04:30 UTC
Forecast valid from 26 at 06 UTC to 26 at 24 UTC
Wind 12 kt from the South/Southeast
Visibility 10 km or more
Few clouds at a height of 2500 ft
Probability 30% :
Temporary
from 26 at 06 UTC to 26 at 24 UTC
Wind 17 kt from the Southeast with gusts up to 27 kt
Scattered clouds at a height of 2000 ft
light rain showers

TAF: FHAW 260430Z 2606/2624 15012KT 9999 FEW025 PROB30 TEMPO 2606/2624 14017G27KT -SHRA SCT020

Weather observations and forecasts of more than 4000 airports (METAR and TAF reports).

The available stations are represented by yellow and red dots on the map.

Hover mouse over dot to see the name of the station.

Then click to see weather observations and forecasts.

To change the map : click on the green buttons with a black cross to zoom in, on the green button with a dash to zoom out, or on the green arrows for adjacent maps.


METAR-TAF: